Isola Bianca — ICLD — position and weather

sailwx.info

Track history (hours):
 
Tides and Currents Weather Stations Pressure Air Temp Water Temp Dewpoint Dewpoint Depression Visibility Wind Speed Wind Dir Waves Ship Positions

Isola Bianca

Last reported at 2015-Jul-23 03:05 UTC. Time now 2015-Jul-29 15:55 UTC.
Position N 40°19' W 068°10'.

Length 183 m; draft 7.7 m.

Type: Ship. MMSI: 247245200.

Date/timePositionNaut miles runAvg speedWind from/ knotsBaromVisibWave heightAir tempDewpointWater temp
2015-Jul-23 03:05N 40°19' W 068°10'714.3
2015-Jul-23 02:34N 40°21' W 068°20'1413.9
2015-Jul-23 01:33N 40°24' W 068°38'3113.6
2015-Jul-22 23:18N 40°27' W 069°18'2413.8
2015-Jul-22 21:34N 40°26' W 069°49'2813.8
2015-Jul-22 19:30N 40°25' W 070°27'1613.7
2015-Jul-22 18:22N 40°25' W 070°47'1113.4
2015-Jul-22 17:32N 40°24' W 071°02'1313.4
2015-Jul-22 16:33N 40°24' W 071°19'1413.6
2015-Jul-22 15:33N 40°24' W 071°37'1413.5
2015-Jul-22 14:33N 40°24' W 071°55'1313.3
2015-Jul-22 13:32N 40°23' W 072°12'1313.3
2015-Jul-22 12:33N 40°23' W 072°29'1413.1
2015-Jul-22 11:30N 40°22' W 072°48'1213.1
2015-Jul-22 10:33N 40°22' W 073°04'1613.3
2015-Jul-22 09:21N 40°24' W 073°25'1113.8
2015-Jul-22 08:34N 40°26' W 073°39'1110.6
2015-Jul-22 07:33N 40°28' W 073°52'1211.9
2015-Jul-22 06:33N 40°37' W 074°03'5 5.0
2015-Jul-22 05:33N 40°39' W 074°09'5 4.7
2015-Jul-22 04:33N 40°35' W 074°13'1 0.0
2015-Jul-21 03:15N 40°35' W 074°12'0 0.5
2015-Jul-21 02:33N 40°36' W 074°12'4 3.9
2015-Jul-21 01:33N 40°39' W 074°09'4 3.6
2015-Jul-21 00:31N 40°38' W 074°04'0 0.1
2015-Jul-20 23:31N 40°38' W 074°04'0 0.1
2015-Jul-20 22:31N 40°38' W 074°04'0 0.0
2015-Jul-20 21:31N 40°38' W 074°04'0 0.0
2015-Jul-20 20:31N 40°38' W 074°04'0 0.0
2015-Jul-20 19:31N 40°38' W 074°04'0 0.0
2015-Jul-20 18:31N 40°38' W 074°04'2 2.3
2015-Jul-20 17:34N 40°36' W 074°03'9 9.4
2015-Jul-20 16:33N 40°29' W 073°54'9 9.0
2015-Jul-20 15:32N 40°27' W 073°43'1212.3
2015-Jul-20 14:33N 40°28' W 073°27'1312.6
2015-Jul-20 13:33N 40°30' W 073°10'1312.7
2015-Jul-20 12:33N 40°30' W 072°54'1212.5
2015-Jul-20 11:33N 40°30' W 072°37'1412.3
2015-Jul-20 10:25N 40°31' W 072°19'22511.9
2015-Jul-19 15:29N 40°21' W 067°23'  
Track history (hours):
 
Tides and Currents Weather Stations Pressure Air Temp Water Temp Dewpoint Dewpoint Depression Visibility Wind Speed Wind Dir Waves Ship Positions

Isola Bianca

Last reported at 2015-Jul-23 03:05 UTC. Time now 2015-Jul-29 15:55 UTC.
Position N 40°19' W 068°10'.

Length 183 m; draft 7.7 m.

Type: Ship. MMSI: 247245200.

Date/timePositionNaut miles runAvg speedWind from/ knotsBaromVisibWave heightAir tempDewpointWater temp
2015-Jul-23 03:05N 40°19' W 068°10'714.3
2015-Jul-23 02:34N 40°21' W 068°20'1413.9
2015-Jul-23 01:33N 40°24' W 068°38'3113.6
2015-Jul-22 23:18N 40°27' W 069°18'2413.8
2015-Jul-22 21:34N 40°26' W 069°49'2813.8
2015-Jul-22 19:30N 40°25' W 070°27'1613.7
2015-Jul-22 18:22N 40°25' W 070°47'1113.4
2015-Jul-22 17:32N 40°24' W 071°02'1313.4
2015-Jul-22 16:33N 40°24' W 071°19'1413.6
2015-Jul-22 15:33N 40°24' W 071°37'1413.5
2015-Jul-22 14:33N 40°24' W 071°55'1313.3
2015-Jul-22 13:32N 40°23' W 072°12'1313.3
2015-Jul-22 12:33N 40°23' W 072°29'1413.1
2015-Jul-22 11:30N 40°22' W 072°48'1213.1
2015-Jul-22 10:33N 40°22' W 073°04'1613.3
2015-Jul-22 09:21N 40°24' W 073°25'1113.8
2015-Jul-22 08:34N 40°26' W 073°39'1110.6
2015-Jul-22 07:33N 40°28' W 073°52'1211.9
2015-Jul-22 06:33N 40°37' W 074°03'5 5.0
2015-Jul-22 05:33N 40°39' W 074°09'5 4.7
2015-Jul-22 04:33N 40°35' W 074°13'1 0.0
2015-Jul-21 03:15N 40°35' W 074°12'0 0.5
2015-Jul-21 02:33N 40°36' W 074°12'4 3.9
2015-Jul-21 01:33N 40°39' W 074°09'4 3.6
2015-Jul-21 00:31N 40°38' W 074°04'0 0.1
2015-Jul-20 23:31N 40°38' W 074°04'0 0.1
2015-Jul-20 22:31N 40°38' W 074°04'0 0.0
2015-Jul-20 21:31N 40°38' W 074°04'0 0.0
2015-Jul-20 20:31N 40°38' W 074°04'0 0.0
2015-Jul-20 19:31N 40°38' W 074°04'0 0.0
2015-Jul-20 18:31N 40°38' W 074°04'2 2.3
2015-Jul-20 17:34N 40°36' W 074°03'9 9.4
2015-Jul-20 16:33N 40°29' W 073°54'9 9.0
2015-Jul-20 15:32N 40°27' W 073°43'1212.3
2015-Jul-20 14:33N 40°28' W 073°27'1312.6
2015-Jul-20 13:33N 40°30' W 073°10'1312.7
2015-Jul-20 12:33N 40°30' W 072°54'1212.5
2015-Jul-20 11:33N 40°30' W 072°37'1412.3
2015-Jul-20 10:25N 40°31' W 072°19'22511.9
2015-Jul-19 15:29N 40°21' W 067°23'  

Dump ship's entire track history